메인 페이지
METAR-TAF:

METAR-TAF

공항 :

베드포드, 매사추세츠, 미국

위도: 42-28-06N, 경도: 071-17-40W, 고도: 40m

현재 날씨관측

예보는 18분 전, 07:06시(UTC)에 발표되었습니다.
무풍
온도 8°C
습도 87%
기압 1021 hPa
시정: 0.8km
고도 200ft 상공 흐림
안개

METAR: KBED 220706Z AUTO 00000KT 1/2SM R11/3000VP6000FT FG OVC002 08/06 A3015 RMK AO2 T00780056

시각: 03:24 (07:24 UTC)

예보

예보는 1 시간 45분 전, 05:39시(UTC)에 발표되었습니다.
예보 대상 시간: 22일 06시부터 23일 06시까지 (UTC)
kt
시정: 10km
고도 300ft 상공 구름 보통
고도 25000ft 상공 구름 많음
22일 1300시부터 (UTC)
북동6kt
시정: 10km
고도 25000ft 상공 흐림
22일 1900시부터 (UTC)
7kt
시정: 10km
고도 1500ft 상공 흐림
22일 2200시부터 (UTC)
동북동7kt
시정: 9.7km
고도 800ft 상공 흐림
약한비
23일 0000시부터 (UTC)
7kt
시정: 8.0km
고도 800ft 상공 흐림
약한비, 박무
23일 0400시부터 (UTC)
5kt
시정: 2.4km
고도 800ft 상공 흐림
약한비, 박무

TAF: KBED 220539Z 2206/2306 00000KT P6SM SCT003 BKN250 FM221300 05006KT P6SM OVC250 FM221900 08007KT P6SM OVC015 FM222200 07007KT 6SM -RA OVC008 FM230000 08007KT 5SM -RA BR OVC008 FM230400 08005KT 1 1/2SM -RA BR OVC008

4,000개 이상의 공항 관측 자료 및 예보 (METAR 및 TAF 보고).

지도상에서 검색 가능한 기상관측소가 노란 점과 빨간 점으로 표시되어 있습니다.

기상관측소 명을 보려면 표시 위로 마우스를 이동하세요.

날씨 관측과 예보를 보려면 클릭하세요.

지도 변경 : 확대하려면 엑스 표시가 있는 녹색 버튼, 축소하려면 빼기 표시가 있는 녹색 버튼, 다음 페이지의 지도를 보려면 녹색 화살표를 클릭하세요.


METAR-TAF: